Craig, MO (64437)

10:22 PM CDT on June 21, 2018 (GMT -0500)
Country Livin | | Change Station
Active Advisory: Flood Warning

Elev 1049 ft 40.32 °N, 95.35 °W | Updated 22 seconds ago

Overcast
Overcast
67.6 °F
Feels Like 67.6 °F
N
11.9
Wind Variable Wind from NNW
Gusts 17.0 mph

Today
High -- | Low -- °F
--% Chance of Precip.
Yesterday
High -- | Low -- °F
Precip. -- in
Pressure 29.82 in
Visibility 9.0 miles
Clouds Overcast 1300 ft
Dew Point 65 °F
Humidity 91%
Rainfall 0.03 in
Snow Depth Not available.
5:52 AM 8:54 PM
Waxing Gibbous, 68% visible
SPECI KFNB 220314Z AUTO 33010KT 9SM -RA OVC013 19/18 A2982 RMK AO2 RAB05 P0000 T01940178
Pressure 29.82 in
Visibility 9.0 miles
Clouds Overcast 1300 ft
Dew Point 65 °F
Humidity 91%
Rainfall 0.03 in
Snow Depth Not available.
5:52 AM 8:54 PM
Waxing Gibbous, 68% visible
SPECI KFNB 220314Z AUTO 33010KT 9SM -RA OVC013 19/18 A2982 RMK AO2 RAB05 P0000 T01940178

Get Your Daily Forecast Email!

Thanks for signing up!

Be on the lookout for a verification email in your inbox.

You'll start receiving severe weather alerts in your inbox..

×

10-Day Weather Forecast

Almanac

Astronomy

Jun. 21, 2018 Rise Set
Actual Time
Civil Twilight
Nautical Twilight
Astronomical Twilight
Moon
Length of Visible Light
Length of Day
Tomorrow will be .
, % of the Moon is Illuminated

Today's Extremes

State Highs State Lows

Community

WunderPhotos

Category 6

Welcome to Category 6. This is the collective home for Weather Underground's featured writeups by Dr. Jeff Masters (right), Bob Henson (left), Chris Burt, and other regular contributors.

Nearby

Air Quality

  Air Quality AQ Index Pollutant
Not available.

Snow Depth

Station Depth Elevation

Earthquake Activity

City Distance Mag. Time & Date
Minimum magnitude displayed is 2.5.

Coastal Water Temperatures

Place Temperature

Stations

Nearby Weather Stations

Station Location Temp. Windchill Dew Point Humidity Wind Precip. Elev Updated Type
                   

Watches & Warnings

Flood Warning
Issued: 8:56 PM CDT Jun. 21, 2018 – National Weather Service

The Flood Warning continues for
the Missouri River at Rulo.
* At 8:30 PM Thursday the stage was 17.3 feet... or 0.3 feet above
flood stage.
* Flood stage is 17.0 feet.
* Minor flooding is occurring and minor flooding is forecast.
* Forecast... the river will continue rising to near 17.4 feet by
early tomorrow afternoon then begin falling.
* Impact... at 17.0 feet... agricultural lowlands along both sides of
the river begin to flood.


Lat... Lon 4026 9563 4026 9544 3991 9501 3982 9503
      3997 9536


Hd